createdAt,value
2023-03-04T00:02:25.278Z,26.50
2023-03-04T00:04:54.954Z,26.40
2023-03-04T00:07:23.402Z,33.50
2023-03-04T00:09:53.684Z,35.20
2023-03-04T00:12:23.232Z,25.30
2023-03-04T00:14:51.763Z,32.40
2023-03-04T00:17:25.595Z,28.70
2023-03-04T00:19:55.575Z,27.70
2023-03-04T00:22:24.336Z,29.30
2023-03-04T00:24:53.469Z,28.40
2023-03-04T00:27:22.254Z,27.90
2023-03-04T00:29:51.167Z,25.20
2023-03-04T00:32:19.730Z,27.90
2023-03-04T00:34:48.805Z,28.20
2023-03-04T00:37:17.171Z,26.70
2023-03-04T00:39:45.690Z,24.90
2023-03-04T00:42:17.020Z,33.90
2023-03-04T00:44:46.703Z,24.60
2023-03-04T00:47:15.405Z,24.30
2023-03-04T00:49:44.268Z,27.40
2023-03-04T00:52:13.439Z,22.50
2023-03-04T00:54:43.115Z,23.50
2023-03-04T00:57:11.768Z,28.00
2023-03-04T00:59:41.060Z,32.20
2023-03-04T01:02:12.086Z,43.60
2023-03-04T01:04:43.512Z,59.30
2023-03-04T01:07:13.433Z,34.50
2023-03-04T01:09:45.294Z,25.60
2023-03-04T01:12:14.260Z,37.40
2023-03-04T01:14:42.704Z,27.70
2023-03-04T01:17:17.516Z,30.90
2023-03-04T01:19:45.822Z,24.60
2023-03-04T01:22:15.309Z,28.70
2023-03-04T01:24:45.169Z,25.30
2023-03-04T01:27:13.469Z,24.50
2023-03-04T01:29:45.358Z,25.00
2023-03-04T01:32:13.472Z,24.80
2023-03-04T01:34:43.410Z,26.30
2023-03-04T01:37:13.645Z,27.20
2023-03-04T01:39:41.735Z,30.20
2023-03-04T01:42:17.356Z,25.40
2023-03-04T01:44:45.545Z,26.20
2023-03-04T01:47:19.365Z,38.60
2023-03-04T01:49:53.731Z,27.50
2023-03-04T01:52:22.521Z,30.80
2023-03-04T01:54:52.459Z,37.80
2023-03-04T01:57:25.601Z,32.50
2023-03-04T02:00:22.824Z,42.10
2023-03-04T02:02:54.395Z,42.10
2023-03-04T02:05:23.030Z,40.10
2023-03-04T02:07:53.222Z,38.90
2023-03-04T02:10:24.466Z,30.30
2023-03-04T02:12:54.629Z,40.90
2023-03-04T02:15:23.571Z,33.80
2023-03-04T02:17:58.170Z,31.10
2023-03-04T02:20:48.931Z,27.60
2023-03-04T02:23:26.918Z,41.10
2023-03-04T02:26:28.541Z,28.90
2023-03-04T02:28:58.322Z,30.90
2023-03-04T02:31:33.057Z,31.30
2023-03-04T02:34:06.759Z,31.80
2023-03-04T02:36:35.822Z,36.10
2023-03-04T02:39:11.150Z,33.90
2023-03-04T02:41:40.372Z,30.80
2023-03-04T02:44:36.323Z,32.10
2023-03-04T02:47:08.046Z,32.90
2023-03-04T02:49:38.000Z,29.90
2023-03-04T02:52:10.246Z,34.90
2023-03-04T02:54:38.800Z,37.90
2023-03-04T02:57:09.306Z,30.60
2023-03-04T02:59:39.216Z,27.30
2023-03-04T03:02:09.711Z,25.80
2023-03-04T03:07:13.643Z,33.40
2023-03-04T03:09:43.175Z,34.10
2023-03-04T03:12:11.696Z,34.20
2023-03-04T03:14:40.841Z,34.00
2023-03-04T03:17:10.679Z,34.10
2023-03-04T03:19:40.452Z,32.40
2023-03-04T03:22:11.619Z,34.40
2023-03-04T03:24:40.984Z,29.20
2023-03-04T03:27:09.537Z,33.70
2023-03-04T03:29:41.267Z,38.40
2023-03-04T03:32:09.684Z,32.90
2023-03-04T03:34:39.721Z,35.90
2023-03-04T03:37:10.374Z,35.70
2023-03-04T03:39:43.540Z,34.70
2023-03-04T03:42:12.091Z,31.50
2023-03-04T03:44:40.708Z,30.80
2023-03-04T03:47:10.033Z,36.40
2023-03-04T03:49:38.432Z,40.30
2023-03-04T03:52:08.690Z,39.10
2023-03-04T03:54:37.975Z,45.20
2023-03-04T03:57:07.069Z,94.20
2023-03-04T03:59:37.162Z,81.50
2023-03-04T04:02:06.146Z,42.90
2023-03-04T04:04:35.169Z,38.90
2023-03-04T04:07:04.098Z,44.00
2023-03-04T04:09:34.487Z,40.40
2023-03-04T04:12:05.915Z,35.00
2023-03-04T04:14:41.957Z,34.40
2023-03-04T04:17:11.185Z,36.00
2023-03-04T04:19:41.003Z,36.80
2023-03-04T04:22:15.889Z,31.30
2023-03-04T04:24:44.609Z,36.00
2023-03-04T04:27:13.306Z,34.40
2023-03-04T04:29:42.396Z,40.90
2023-03-04T04:32:13.926Z,38.90
2023-03-04T04:34:44.759Z,35.80
2023-03-04T04:37:13.105Z,36.50
2023-03-04T04:39:41.461Z,33.00
2023-03-04T04:42:11.247Z,32.90
2023-03-04T04:44:40.135Z,43.30
2023-03-04T04:47:09.639Z,37.90
2023-03-04T04:49:38.180Z,34.90
2023-03-04T04:52:06.691Z,35.80
2023-03-04T04:54:35.218Z,43.10
2023-03-04T04:57:03.899Z,41.70
2023-03-04T04:59:32.725Z,42.30
2023-03-04T05:02:05.715Z,38.80
2023-03-04T05:04:35.659Z,41.10
2023-03-04T05:07:04.406Z,49.00
2023-03-04T05:09:35.087Z,67.40
2023-03-04T05:12:03.268Z,78.90
2023-03-04T05:14:35.664Z,72.70
2023-03-04T05:17:04.570Z,65.50
2023-03-04T05:19:33.041Z,51.90
2023-03-04T05:22:05.652Z,60.90
2023-03-04T05:24:35.166Z,43.10
2023-03-04T05:27:03.831Z,63.10
2023-03-04T05:29:32.703Z,47.80
2023-03-04T05:32:01.649Z,40.30
2023-03-04T05:34:31.394Z,41.10
2023-03-04T05:37:00.263Z,42.30
2023-03-04T05:39:29.709Z,47.10
2023-03-04T05:41:57.775Z,42.80
2023-03-04T05:44:29.315Z,35.80
2023-03-04T05:46:57.972Z,42.00
2023-03-04T05:49:26.604Z,40.10
2023-03-04T05:51:55.246Z,46.10
2023-03-04T05:54:23.695Z,39.70
2023-03-04T05:56:52.620Z,41.70
2023-03-04T05:59:21.373Z,38.10
2023-03-04T06:01:51.107Z,50.80
2023-03-04T06:04:19.950Z,43.70
2023-03-04T06:06:54.491Z,41.60
2023-03-04T06:09:24.581Z,42.40
2023-03-04T06:11:53.228Z,44.00
2023-03-04T06:14:26.252Z,37.90
2023-03-04T06:16:55.245Z,39.00
2023-03-04T06:19:23.895Z,37.10
2023-03-04T06:21:52.416Z,46.90
2023-03-04T06:24:21.637Z,40.90
2023-03-04T06:26:50.258Z,40.10
2023-03-04T06:29:20.476Z,40.30
2023-03-04T06:31:49.278Z,37.20
2023-03-04T06:34:19.725Z,44.00
2023-03-04T06:36:48.767Z,41.20
2023-03-04T06:39:19.227Z,39.60
2023-03-04T06:41:47.821Z,43.80
2023-03-04T06:44:16.375Z,40.50
2023-03-04T06:46:46.778Z,37.80
2023-03-04T06:49:15.551Z,42.80
2023-03-04T06:51:43.998Z,59.70
2023-03-04T06:54:12.816Z,57.50
2023-03-04T06:56:41.521Z,51.40
2023-03-04T06:59:10.274Z,53.90
2023-03-04T07:01:38.846Z,59.20
2023-03-04T07:04:08.244Z,72.60
2023-03-04T07:06:37.195Z,67.60
2023-03-04T07:09:07.048Z,73.30
2023-03-04T07:11:35.833Z,72.10
2023-03-04T07:14:04.416Z,64.00
2023-03-04T07:16:33.424Z,50.80
2023-03-04T07:19:02.226Z,39.30
2023-03-04T07:21:34.460Z,55.80
2023-03-04T07:24:03.100Z,49.40
2023-03-04T07:26:32.366Z,42.50
2023-03-04T07:29:01.514Z,38.50
2023-03-04T07:31:32.111Z,40.40
2023-03-04T07:34:05.282Z,46.80
2023-03-04T07:36:35.534Z,40.40
2023-03-04T07:39:07.428Z,47.00
2023-03-04T07:41:37.888Z,40.80
2023-03-04T07:44:06.864Z,37.40
2023-03-04T07:46:39.672Z,38.80
2023-03-04T07:49:08.114Z,48.50
2023-03-04T07:51:37.286Z,38.30
2023-03-04T07:54:06.122Z,39.10
2023-03-04T07:56:34.879Z,40.10
2023-03-04T07:59:03.539Z,42.20
2023-03-04T08:01:36.468Z,43.80
2023-03-04T08:04:05.743Z,44.80
2023-03-04T08:06:34.245Z,50.40
2023-03-04T08:09:09.278Z,43.70
2023-03-04T08:11:38.250Z,39.20
2023-03-04T08:14:07.505Z,42.20
2023-03-04T08:16:41.288Z,49.50
2023-03-04T08:19:11.605Z,39.30
2023-03-04T08:21:41.187Z,68.70
2023-03-04T08:24:10.549Z,51.50
2023-03-04T08:26:44.280Z,37.60
2023-03-04T08:29:14.990Z,38.40
2023-03-04T08:31:48.727Z,39.40
2023-03-04T08:34:18.943Z,50.60
2023-03-04T08:36:52.462Z,41.30
2023-03-04T08:39:21.120Z,31.50
2023-03-04T08:41:49.933Z,36.60
2023-03-04T08:44:19.330Z,44.50
2023-03-04T08:46:48.080Z,41.60
2023-03-04T08:49:19.013Z,38.10
2023-03-04T08:51:47.578Z,31.40
2023-03-04T08:54:16.070Z,40.00
2023-03-04T08:56:45.276Z,40.60
2023-03-04T08:59:14.162Z,38.90
2023-03-04T09:01:42.685Z,27.50
2023-03-04T09:04:13.765Z,27.80
2023-03-04T09:06:42.165Z,30.30
2023-03-04T09:09:11.633Z,28.60
2023-03-04T09:11:40.833Z,30.50
2023-03-04T09:14:09.797Z,30.40
2023-03-04T09:16:39.532Z,29.60
2023-03-04T09:19:07.974Z,32.10
2023-03-04T09:21:40.141Z,24.90
2023-03-04T09:24:08.900Z,30.60
2023-03-04T09:26:37.744Z,28.50
2023-03-04T09:29:07.589Z,26.60
2023-03-04T09:31:36.497Z,25.30
2023-03-04T09:34:08.224Z,23.10
2023-03-04T09:36:36.621Z,21.20
2023-03-04T09:39:07.614Z,23.90
2023-03-04T09:41:38.542Z,25.80
2023-03-04T09:44:20.531Z,27.20
2023-03-04T09:46:50.146Z,26.70
2023-03-04T09:49:20.047Z,26.20
2023-03-04T09:51:51.313Z,25.00
2023-03-04T09:54:46.562Z,25.90
2023-03-04T09:57:48.444Z,19.20
2023-03-04T10:00:26.891Z,23.40
2023-03-04T10:03:10.157Z,22.10
2023-03-04T10:05:45.028Z,21.60
2023-03-04T10:08:29.428Z,21.80
2023-03-04T10:10:59.388Z,21.10
2023-03-04T10:13:52.879Z,19.50
2023-03-04T10:16:25.114Z,19.50
2023-03-04T10:19:00.015Z,19.90
2023-03-04T10:21:32.334Z,25.90
2023-03-04T10:24:06.602Z,27.90
2023-03-04T10:26:35.224Z,23.10
2023-03-04T10:29:07.238Z,20.60
2023-03-04T10:31:38.989Z,22.00
2023-03-04T10:34:09.530Z,23.00
2023-03-04T10:36:55.698Z,21.20
2023-03-04T10:39:30.654Z,19.60
2023-03-04T10:42:01.991Z,18.30
2023-03-04T10:44:31.716Z,17.00
2023-03-04T10:47:00.792Z,18.30
2023-03-04T10:49:30.037Z,19.10
2023-03-04T10:52:03.466Z,18.40
2023-03-04T10:54:49.265Z,18.20
2023-03-04T10:57:24.001Z,18.40
2023-03-04T10:59:57.181Z,17.40
2023-03-04T11:02:32.220Z,17.60
2023-03-04T11:05:21.989Z,19.10
2023-03-04T11:07:59.831Z,15.70
2023-03-04T11:10:39.010Z,19.50
2023-03-04T11:13:11.893Z,20.80
2023-03-04T11:15:59.576Z,16.10
2023-03-04T11:18:42.866Z,33.60
2023-03-04T11:23:57.990Z,22.40
2023-03-04T11:26:29.668Z,19.80
2023-03-04T11:29:21.702Z,19.10
2023-03-04T11:32:32.888Z,16.70
2023-03-04T11:35:09.417Z,22.60
2023-03-04T11:37:53.281Z,17.40
2023-03-04T11:40:48.721Z,18.80
2023-03-04T11:43:22.428Z,17.10
2023-03-04T11:46:29.696Z,24.50
2023-03-04T11:49:26.466Z,15.40
2023-03-04T11:51:58.790Z,21.10
2023-03-04T11:54:38.613Z,17.90
2023-03-04T11:57:17.917Z,20.10
2023-03-04T11:59:55.714Z,23.70
2023-03-04T12:02:30.518Z,41.20
2023-03-04T12:05:20.908Z,18.80
2023-03-04T12:07:56.337Z,23.80
2023-03-04T12:10:31.206Z,16.00
2023-03-04T12:13:28.575Z,16.70
2023-03-04T12:16:35.584Z,19.00
2023-03-04T12:19:16.480Z,25.40
2023-03-04T12:21:54.596Z,19.70
2023-03-04T12:25:12.391Z,18.70
2023-03-04T12:28:00.362Z,22.70
2023-03-04T12:31:07.166Z,19.90
2023-03-04T12:33:42.888Z,23.90
2023-03-04T12:36:49.405Z,14.90
2023-03-04T12:39:31.163Z,17.80
2023-03-04T12:42:38.297Z,21.50
2023-03-04T12:45:27.949Z,18.40
2023-03-04T12:48:06.362Z,18.10
2023-03-04T12:50:48.907Z,22.20
2023-03-04T12:53:24.944Z,43.50
2023-03-04T12:55:54.009Z,19.30
2023-03-04T12:58:25.757Z,19.40
2023-03-04T13:00:56.357Z,17.10
2023-03-04T13:03:31.907Z,21.70
2023-03-04T13:06:19.829Z,20.30
2023-03-04T13:09:15.756Z,25.60
2023-03-04T13:11:54.937Z,15.50
2023-03-04T13:14:26.218Z,21.00
2023-03-04T13:17:02.646Z,18.20
2023-03-04T13:19:52.805Z,18.10
2023-03-04T13:22:38.825Z,20.60
2023-03-04T13:25:26.662Z,15.10
2023-03-04T13:28:15.820Z,17.40
2023-03-04T13:30:56.053Z,20.10
2023-03-04T13:33:24.582Z,18.60
2023-03-04T13:36:05.465Z,18.10
2023-03-04T13:38:39.421Z,25.20
2023-03-04T13:41:32.180Z,25.40
2023-03-04T13:46:43.088Z,16.30
2023-03-04T13:49:24.159Z,21.50
2023-03-04T13:51:53.827Z,23.30
2023-03-04T13:54:27.890Z,21.40
2023-03-04T13:57:03.106Z,20.80
2023-03-04T13:59:43.727Z,19.40
2023-03-04T14:02:12.775Z,16.10
2023-03-04T14:04:56.843Z,17.40
2023-03-04T14:07:34.039Z,32.60
2023-03-04T14:10:14.051Z,19.10
2023-03-04T14:12:53.821Z,14.30
2023-03-04T14:15:27.642Z,19.70
2023-03-04T14:18:02.674Z,14.20
2023-03-04T14:20:34.316Z,16.70
2023-03-04T14:23:23.000Z,19.70
2023-03-04T14:25:52.453Z,15.30
2023-03-04T14:28:21.751Z,13.70
2023-03-04T14:30:52.591Z,16.60
2023-03-04T14:33:23.746Z,14.30
2023-03-04T14:35:58.504Z,15.90
2023-03-04T14:38:30.130Z,15.90
2023-03-04T14:41:11.341Z,15.80
2023-03-04T14:43:42.377Z,12.90
2023-03-04T14:46:16.028Z,15.60
2023-03-04T14:48:49.314Z,16.10
2023-03-04T14:51:48.954Z,15.80
2023-03-04T14:54:41.446Z,18.50
2023-03-04T14:57:21.190Z,21.20
2023-03-04T14:59:51.161Z,20.60
2023-03-04T15:02:31.668Z,19.40
2023-03-04T15:05:02.101Z,17.80
2023-03-04T15:07:35.264Z,16.00
2023-03-04T15:10:07.041Z,21.00
2023-03-04T15:12:36.574Z,25.70
2023-03-04T15:15:42.344Z,18.20
2023-03-04T15:18:26.673Z,15.30
2023-03-04T15:21:03.929Z,18.30
2023-03-04T15:23:33.238Z,23.20
2023-03-04T15:26:03.743Z,17.70
2023-03-04T15:28:37.248Z,16.70
2023-03-04T15:31:06.793Z,16.70
2023-03-04T15:33:39.331Z,16.80
2023-03-04T15:36:10.916Z,13.00
2023-03-04T15:38:48.096Z,18.40
2023-03-04T15:41:27.080Z,17.90
2023-03-04T15:44:00.303Z,16.10
2023-03-04T15:46:29.621Z,14.90
2023-03-04T15:48:58.309Z,20.10
2023-03-04T15:51:28.185Z,29.50
2023-03-04T15:53:57.693Z,21.00
2023-03-04T15:56:35.198Z,14.00
2023-03-04T15:59:07.042Z,23.70
2023-03-04T16:01:35.761Z,22.00
2023-03-04T16:04:05.633Z,27.70
2023-03-04T16:06:34.458Z,20.00
2023-03-04T16:09:07.466Z,17.40
2023-03-04T16:11:39.713Z,21.00
2023-03-04T16:14:10.297Z,17.70
2023-03-04T16:16:39.152Z,23.90
2023-03-04T16:19:07.898Z,22.90
2023-03-04T16:21:41.081Z,22.00
2023-03-04T16:24:16.508Z,20.60
2023-03-04T16:26:45.407Z,20.70
2023-03-04T16:29:14.696Z,17.70
2023-03-04T16:31:43.921Z,16.60
2023-03-04T16:34:13.166Z,19.30
2023-03-04T16:36:42.050Z,20.80
2023-03-04T16:39:18.224Z,23.30
2023-03-04T16:41:48.053Z,19.90
2023-03-04T16:44:17.160Z,21.60
2023-03-04T16:46:46.077Z,24.40
2023-03-04T16:49:14.897Z,17.60
2023-03-04T16:51:48.652Z,19.90
2023-03-04T16:54:19.816Z,20.20
2023-03-04T16:56:48.473Z,20.00
2023-03-04T16:59:17.727Z,19.40
2023-03-04T17:01:46.787Z,19.20
2023-03-04T17:04:16.898Z,24.20
2023-03-04T17:06:46.313Z,19.60
2023-03-04T17:09:15.066Z,17.20
2023-03-04T17:11:44.261Z,21.50
2023-03-04T17:14:15.197Z,18.90
2023-03-04T17:16:44.998Z,20.60
2023-03-04T17:19:18.266Z,21.30
2023-03-04T17:21:47.094Z,24.50
2023-03-04T17:24:16.181Z,19.50
2023-03-04T17:26:45.095Z,20.30
2023-03-04T17:29:13.542Z,19.70
2023-03-04T17:31:42.282Z,20.80
2023-03-04T17:34:11.191Z,26.20
2023-03-04T17:36:40.423Z,24.20
2023-03-04T17:39:09.270Z,31.80
2023-03-04T17:41:38.822Z,34.00
2023-03-04T17:44:11.972Z,23.80
2023-03-04T17:46:40.723Z,34.20
2023-03-04T17:49:11.471Z,26.90
2023-03-04T17:51:40.437Z,32.30
2023-03-04T17:54:10.371Z,26.20
2023-03-04T17:56:41.073Z,26.00
2023-03-04T17:59:15.390Z,25.50
2023-03-04T18:01:47.400Z,29.00
2023-03-04T18:06:45.736Z,26.60
2023-03-04T18:09:14.413Z,26.00
2023-03-04T18:11:43.516Z,24.80
2023-03-04T18:14:13.087Z,27.40
2023-03-04T18:16:46.936Z,32.20
2023-03-04T18:19:18.524Z,32.30
2023-03-04T18:21:53.148Z,31.30
2023-03-04T18:24:22.312Z,26.70
2023-03-04T18:26:51.212Z,30.20
2023-03-04T18:29:20.366Z,34.30
2023-03-04T18:31:49.221Z,24.10
2023-03-04T18:34:18.332Z,30.20
2023-03-04T18:36:48.288Z,31.70
2023-03-04T18:39:17.733Z,38.10
2023-03-04T18:41:46.935Z,30.70
2023-03-04T18:44:15.668Z,27.20
2023-03-04T18:46:47.694Z,26.80
2023-03-04T18:49:16.476Z,28.20
2023-03-04T18:51:45.564Z,33.60
2023-03-04T18:54:15.358Z,40.90
2023-03-04T18:56:48.158Z,28.60
2023-03-04T18:59:24.633Z,29.30
2023-03-04T19:01:53.453Z,24.90
2023-03-04T19:04:22.560Z,29.50
2023-03-04T19:06:51.656Z,27.40
2023-03-04T19:09:20.285Z,32.60
2023-03-04T19:11:48.960Z,35.70
2023-03-04T19:14:22.593Z,33.30
2023-03-04T19:16:52.367Z,28.80
2023-03-04T19:19:21.382Z,31.40
2023-03-04T19:21:50.028Z,34.30
2023-03-04T19:24:18.908Z,29.20
2023-03-04T19:26:55.084Z,40.90
2023-03-04T19:29:24.215Z,29.90
2023-03-04T19:31:53.009Z,28.10
2023-03-04T19:34:21.800Z,33.70
2023-03-04T19:36:50.573Z,33.60
2023-03-04T19:39:19.518Z,32.30
2023-03-04T19:41:48.730Z,30.10
2023-03-04T19:44:17.920Z,39.10
2023-03-04T19:46:46.035Z,33.00
2023-03-04T19:49:19.908Z,28.20
2023-03-04T19:51:48.590Z,32.30
2023-03-04T19:54:17.445Z,28.70
2023-03-04T19:56:46.423Z,33.90
2023-03-04T19:59:15.085Z,35.20
2023-03-04T20:01:43.496Z,27.50
2023-03-04T20:04:13.766Z,29.40
2023-03-04T20:06:43.872Z,30.00
2023-03-04T20:09:12.498Z,34.40
2023-03-04T20:11:56.296Z,33.10
2023-03-04T20:14:28.408Z,34.30
2023-03-04T20:17:04.145Z,32.50
2023-03-04T20:19:32.955Z,34.40
2023-03-04T20:22:01.369Z,29.70
2023-03-04T20:24:30.356Z,32.90
2023-03-04T20:27:03.030Z,29.30
2023-03-04T20:29:33.987Z,28.80
2023-03-04T20:32:04.095Z,36.30
2023-03-04T20:34:33.292Z,41.00
2023-03-04T20:37:02.402Z,50.20
2023-03-04T20:39:31.855Z,31.80
2023-03-04T20:42:00.290Z,32.10
2023-03-04T20:44:31.769Z,38.70
2023-03-04T20:47:01.848Z,31.60
2023-03-04T20:49:30.734Z,33.10
2023-03-04T20:52:06.273Z,43.00
2023-03-04T20:54:38.823Z,31.50
2023-03-04T20:57:10.849Z,30.40
2023-03-04T21:02:14.759Z,52.00
2023-03-04T21:04:44.229Z,49.40
2023-03-04T21:07:13.218Z,49.40
2023-03-04T21:09:45.972Z,62.40
2023-03-04T21:12:14.934Z,55.80
2023-03-04T21:14:45.884Z,66.50
2023-03-04T21:17:15.330Z,57.20
2023-03-04T21:19:44.297Z,43.50
2023-03-04T21:22:15.437Z,41.00
2023-03-04T21:24:45.009Z,35.80
2023-03-04T21:27:13.857Z,36.70
2023-03-04T21:29:42.655Z,43.40
2023-03-04T21:32:24.357Z,45.40
2023-03-04T21:34:54.652Z,42.60
2023-03-04T21:37:24.183Z,45.80
2023-03-04T21:39:55.205Z,47.00
2023-03-04T21:42:24.241Z,42.90
2023-03-04T21:44:57.764Z,47.30
2023-03-04T21:47:26.050Z,42.50
2023-03-04T21:49:54.166Z,43.90
2023-03-04T21:52:22.384Z,45.90
2023-03-04T21:54:51.169Z,48.60
2023-03-04T21:57:19.594Z,37.00
2023-03-04T21:59:48.571Z,45.90
2023-03-04T22:02:19.173Z,53.60
2023-03-04T22:04:48.416Z,50.30
2023-03-04T22:07:17.249Z,42.20
2023-03-04T22:09:48.415Z,51.60
2023-03-04T22:12:19.744Z,53.60
2023-03-04T22:14:48.406Z,46.30
2023-03-04T22:17:18.034Z,52.10
2023-03-04T22:19:47.068Z,43.60
2023-03-04T22:22:20.155Z,48.70
2023-03-04T22:24:48.607Z,62.60
2023-03-04T22:27:16.991Z,47.30
2023-03-04T22:29:46.591Z,52.00
2023-03-04T22:32:17.266Z,49.80
2023-03-04T22:34:47.194Z,57.90
2023-03-04T22:37:16.174Z,51.70
2023-03-04T22:39:44.800Z,48.50
2023-03-04T22:42:14.271Z,54.50
2023-03-04T22:44:42.999Z,50.60
2023-03-04T22:47:11.679Z,47.50
2023-03-04T22:49:41.483Z,53.30
2023-03-04T22:52:15.256Z,53.90
2023-03-04T22:54:43.624Z,54.30
2023-03-04T22:57:12.265Z,55.60
2023-03-04T22:59:40.982Z,50.90
2023-03-04T23:02:10.327Z,57.60
2023-03-04T23:04:39.112Z,52.60
2023-03-04T23:07:08.120Z,55.10
2023-03-04T23:09:37.765Z,48.40
2023-03-04T23:12:06.856Z,55.00
2023-03-04T23:14:35.216Z,61.80
2023-03-04T23:17:06.205Z,58.90
2023-03-04T23:19:35.107Z,45.60
2023-03-04T23:22:04.118Z,49.80
2023-03-04T23:24:33.962Z,61.60
2023-03-04T23:27:03.546Z,59.50
2023-03-04T23:29:33.601Z,49.50
2023-03-04T23:32:01.708Z,58.20
2023-03-04T23:34:30.188Z,58.60
2023-03-04T23:36:58.925Z,60.10
2023-03-04T23:39:27.555Z,53.50
2023-03-04T23:41:56.229Z,57.40
2023-03-04T23:44:25.188Z,58.60
2023-03-04T23:46:53.892Z,59.80
2023-03-04T23:49:22.860Z,62.40
2023-03-04T23:51:51.391Z,54.70
2023-03-04T23:54:20.388Z,59.20
2023-03-04T23:56:48.820Z,55.70
2023-03-04T23:59:21.222Z,59.70
